createdAt,value
2023-09-03T00:01:22.045Z,100972.81
2023-09-03T00:03:50.384Z,100971.59
2023-09-03T00:06:18.616Z,100976.66
2023-09-03T00:08:50.126Z,100977.00
2023-09-03T00:11:18.794Z,100964.72
2023-09-03T00:13:46.874Z,100968.72
2023-09-03T00:16:15.561Z,100973.56
2023-09-03T00:18:43.784Z,100972.94
2023-09-03T00:21:12.771Z,100974.94
2023-09-03T00:23:41.394Z,100967.72
2023-09-03T00:26:18.429Z,100963.53
2023-09-03T00:28:51.779Z,100973.41
2023-09-03T00:31:20.054Z,100975.97
2023-09-03T00:33:48.746Z,100989.56
2023-09-03T00:36:17.639Z,100989.41
2023-09-03T00:38:50.844Z,100990.34
2023-09-03T00:41:20.697Z,100977.41
2023-09-03T00:43:49.145Z,100985.94
2023-09-03T00:46:17.343Z,100985.94
2023-09-03T00:48:45.743Z,100986.13
2023-09-03T00:51:14.785Z,100993.63
2023-09-03T00:53:49.462Z,100993.78
2023-09-03T00:56:38.465Z,100990.63
2023-09-03T00:59:07.791Z,101007.31
2023-09-03T01:01:37.241Z,100994.22
2023-09-03T01:04:07.238Z,100993.69
2023-09-03T01:06:35.377Z,100972.91
2023-09-03T01:09:03.976Z,100997.97
2023-09-03T01:11:39.703Z,101000.69
2023-09-03T01:14:22.229Z,101001.81
2023-09-03T01:16:56.254Z,101003.53
2023-09-03T01:19:46.731Z,101004.34
2023-09-03T01:22:29.055Z,101001.09
2023-09-03T01:25:11.474Z,100996.56
2023-09-03T01:27:49.464Z,100994.97
2023-09-03T01:30:20.084Z,100998.81
2023-09-03T01:32:49.823Z,101001.00
2023-09-03T01:35:20.469Z,100994.56
2023-09-03T01:37:49.002Z,100995.94
2023-09-03T01:40:16.999Z,100998.25
2023-09-03T01:42:45.755Z,100996.09
2023-09-03T01:45:13.876Z,101003.63
2023-09-03T01:47:50.944Z,101000.22
2023-09-03T01:50:26.391Z,100988.00
2023-09-03T01:53:03.738Z,100992.47
2023-09-03T01:55:38.133Z,101008.22
2023-09-03T01:58:09.544Z,101011.84
2023-09-03T02:00:39.344Z,100998.94
2023-09-03T02:03:12.403Z,101007.28
2023-09-03T02:05:40.613Z,101007.28
2023-09-03T02:08:08.994Z,101017.63
2023-09-03T02:10:37.039Z,101017.97
2023-09-03T02:13:06.173Z,101016.44
2023-09-03T02:15:34.455Z,101019.75
2023-09-03T02:18:02.556Z,101028.47
2023-09-03T02:20:32.016Z,101028.19
2023-09-03T02:23:00.090Z,101040.31
2023-09-03T02:25:28.541Z,101045.66
2023-09-03T02:27:56.956Z,101051.53
2023-09-03T02:30:25.149Z,101057.94
2023-09-03T02:32:53.675Z,101055.09
2023-09-03T02:35:21.852Z,101056.84
2023-09-03T02:37:51.610Z,101060.81
2023-09-03T02:40:21.933Z,101067.63
2023-09-03T02:42:50.095Z,101072.38
2023-09-03T02:45:18.592Z,101075.34
2023-09-03T02:47:47.382Z,101083.16
2023-09-03T02:50:15.422Z,101076.03
2023-09-03T02:52:44.187Z,101073.56
2023-09-03T02:55:14.910Z,101082.06
2023-09-03T02:57:43.581Z,101086.72
2023-09-03T03:00:12.798Z,101080.47
2023-09-03T03:02:42.684Z,101094.22
2023-09-03T03:05:11.505Z,101093.22
2023-09-03T03:07:41.924Z,101091.00
2023-09-03T03:10:10.656Z,101087.56
2023-09-03T03:12:40.588Z,101088.72
2023-09-03T03:15:10.712Z,101091.34
2023-09-03T03:17:39.686Z,101086.81
2023-09-03T03:20:10.682Z,101084.56
2023-09-03T03:22:38.878Z,101083.44
2023-09-03T03:25:08.138Z,101080.72
2023-09-03T03:27:38.915Z,101080.50
2023-09-03T03:30:10.590Z,101083.50
2023-09-03T03:32:40.121Z,101088.16
2023-09-03T03:35:10.105Z,101080.25
2023-09-03T03:37:40.478Z,101081.78
2023-09-03T03:40:10.216Z,101087.06
2023-09-03T03:42:39.176Z,101084.34
2023-09-03T03:45:08.240Z,101081.22
2023-09-03T03:47:39.447Z,101079.09
2023-09-03T03:52:55.203Z,101079.03
2023-09-03T03:55:23.728Z,101082.97
2023-09-03T04:00:23.856Z,101090.75
2023-09-03T04:02:52.083Z,101092.81
2023-09-03T04:05:20.486Z,101090.00
2023-09-03T04:08:07.894Z,101083.31
2023-09-03T04:10:36.021Z,101077.28
2023-09-03T04:13:04.128Z,101089.31
2023-09-03T04:15:33.824Z,101083.25
2023-09-03T04:18:02.821Z,101093.38
2023-09-03T04:20:31.026Z,101102.41
2023-09-03T04:23:02.574Z,101101.78
2023-09-03T04:25:30.990Z,101098.94
2023-09-03T04:27:59.526Z,101106.28
2023-09-03T04:30:28.245Z,101118.88
2023-09-03T04:32:58.279Z,101116.34
2023-09-03T04:35:27.091Z,101124.13
2023-09-03T04:37:55.525Z,101132.22
2023-09-03T04:40:23.980Z,101149.03
2023-09-03T04:42:52.787Z,101140.06
2023-09-03T04:45:21.035Z,101137.47
2023-09-03T04:47:49.791Z,101143.00
2023-09-03T04:50:19.697Z,101102.00
2023-09-03T04:52:49.862Z,101137.09
2023-09-03T04:55:19.666Z,101129.91
2023-09-03T04:57:47.783Z,101139.84
2023-09-03T05:00:16.953Z,101136.22
2023-09-03T05:02:45.390Z,101136.16
2023-09-03T05:05:14.292Z,101130.03
2023-09-03T05:07:44.157Z,101131.47
2023-09-03T05:10:13.154Z,101128.28
2023-09-03T05:12:43.073Z,101128.38
2023-09-03T05:15:14.262Z,101140.81
2023-09-03T05:17:43.598Z,101135.28
2023-09-03T05:20:12.257Z,101127.75
2023-09-03T05:22:40.863Z,101129.53
2023-09-03T05:25:10.946Z,101141.03
2023-09-03T05:27:39.858Z,101157.84
2023-09-03T05:30:10.554Z,101157.47
2023-09-03T05:32:40.248Z,101157.41
2023-09-03T05:35:09.656Z,101153.25
2023-09-03T05:37:38.024Z,101164.09
2023-09-03T05:40:07.733Z,101166.66
2023-09-03T05:42:37.321Z,101166.13
2023-09-03T05:45:06.731Z,101163.13
2023-09-03T05:47:35.209Z,101163.22
2023-09-03T05:50:06.800Z,101159.50
2023-09-03T05:52:35.652Z,101166.03
2023-09-03T05:55:06.284Z,101166.38
2023-09-03T05:57:35.046Z,101169.13
2023-09-03T06:00:06.925Z,101174.22
2023-09-03T06:02:35.631Z,101165.38
2023-09-03T06:05:05.615Z,101173.34
2023-09-03T06:07:34.129Z,101177.75
2023-09-03T06:10:02.108Z,101192.19
2023-09-03T06:12:30.497Z,101195.25
2023-09-03T06:14:58.639Z,101203.34
2023-09-03T06:17:28.020Z,101216.41
2023-09-03T06:19:56.354Z,101206.56
2023-09-03T06:22:24.351Z,101220.00
2023-09-03T06:24:52.509Z,101221.03
2023-09-03T06:27:20.829Z,101234.00
2023-09-03T06:29:48.842Z,101237.31
2023-09-03T06:32:16.909Z,101230.78
2023-09-03T06:34:46.572Z,101237.31
2023-09-03T06:37:14.597Z,101247.44
2023-09-03T06:39:43.042Z,101253.19
2023-09-03T06:42:11.661Z,101256.06
2023-09-03T06:44:39.871Z,101260.31
2023-09-03T06:47:08.014Z,101263.00
2023-09-03T06:49:36.447Z,101266.03
2023-09-03T06:52:06.501Z,101258.22
2023-09-03T06:54:34.589Z,101251.44
2023-09-03T06:57:05.958Z,101248.22
2023-09-03T06:59:42.073Z,101247.59
2023-09-03T07:02:10.896Z,101234.88
2023-09-03T07:04:38.979Z,101252.84
2023-09-03T07:07:09.632Z,101258.06
2023-09-03T07:09:37.822Z,101257.97
2023-09-03T07:12:06.923Z,101262.13
2023-09-03T07:14:35.714Z,101263.47
2023-09-03T07:17:05.371Z,101258.31
2023-09-03T07:19:33.681Z,101258.88
2023-09-03T07:22:02.381Z,101265.88
2023-09-03T07:24:31.870Z,101263.34
2023-09-03T07:27:00.994Z,101274.91
2023-09-03T07:29:29.153Z,101252.25
2023-09-03T07:31:57.192Z,101278.13
2023-09-03T07:34:25.601Z,101283.66
2023-09-03T07:36:53.714Z,101282.59
2023-09-03T07:39:22.175Z,101288.41
2023-09-03T07:41:51.594Z,101304.28
2023-09-03T07:44:20.067Z,101306.13
2023-09-03T07:46:48.512Z,101313.59
2023-09-03T07:49:17.648Z,101322.00
2023-09-03T07:51:46.125Z,101323.31
2023-09-03T07:54:16.676Z,101324.63
2023-09-03T07:56:45.875Z,101329.88
2023-09-03T07:59:15.676Z,101336.19
2023-09-03T08:01:43.961Z,101336.59
2023-09-03T08:04:12.783Z,101341.97
2023-09-03T08:06:40.820Z,101341.88
2023-09-03T08:09:09.842Z,101336.19
2023-09-03T08:11:38.326Z,101350.41
2023-09-03T08:14:07.416Z,101353.47
2023-09-03T08:16:37.462Z,101362.84
2023-09-03T08:19:05.620Z,101356.66
2023-09-03T08:21:34.389Z,101356.97
2023-09-03T08:24:02.886Z,101361.09
2023-09-03T08:26:30.990Z,101334.44
2023-09-03T08:28:59.750Z,101357.31
2023-09-03T08:31:27.883Z,101358.84
2023-09-03T08:33:58.173Z,101359.47
2023-09-03T08:36:26.775Z,101360.88
2023-09-03T08:38:55.385Z,101354.03
2023-09-03T08:41:24.968Z,101354.78
2023-09-03T08:43:57.092Z,101355.25
2023-09-03T08:46:27.785Z,101356.97
2023-09-03T08:48:56.045Z,101357.88
2023-09-03T08:51:27.201Z,101360.56
2023-09-03T08:53:57.897Z,101365.03
2023-09-03T08:56:26.882Z,101363.31
2023-09-03T09:01:24.154Z,101357.00
2023-09-03T09:03:56.011Z,101362.69
2023-09-03T09:06:24.726Z,101360.81
2023-09-03T09:08:54.989Z,101356.47
2023-09-03T09:11:24.124Z,101381.13
2023-09-03T09:13:58.101Z,101367.06
2023-09-03T09:16:27.672Z,101372.44
2023-09-03T09:18:57.413Z,101373.53
2023-09-03T09:21:26.322Z,101370.13
2023-09-03T09:24:02.411Z,101368.28
2023-09-03T09:26:32.754Z,101371.59
2023-09-03T09:29:02.153Z,101371.97
2023-09-03T09:31:33.544Z,101384.47
2023-09-03T09:34:10.560Z,101381.75
2023-09-03T09:36:39.459Z,101392.25
2023-09-03T09:39:09.045Z,101387.69
2023-09-03T09:41:40.054Z,101389.00
2023-09-03T09:44:10.858Z,101378.03
2023-09-03T09:46:41.725Z,101376.31
2023-09-03T09:49:09.990Z,101377.22
2023-09-03T09:51:38.741Z,101382.50
2023-09-03T09:54:07.691Z,101394.25
2023-09-03T09:56:37.182Z,101386.44
2023-09-03T09:59:06.108Z,101383.25
2023-09-03T10:01:54.416Z,101389.91
2023-09-03T10:04:28.104Z,101388.34
2023-09-03T10:06:57.976Z,101370.66
2023-09-03T10:09:26.931Z,101378.53
2023-09-03T10:11:56.030Z,101375.78
2023-09-03T10:14:24.229Z,101368.09
2023-09-03T10:16:57.770Z,101365.41
2023-09-03T10:19:29.277Z,101378.72
2023-09-03T10:22:04.140Z,101385.22
2023-09-03T10:24:33.250Z,101391.44
2023-09-03T10:27:05.891Z,101392.53
2023-09-03T10:29:37.637Z,101389.56
2023-09-03T10:32:10.473Z,101385.16
2023-09-03T10:34:39.430Z,101384.13
2023-09-03T10:37:08.893Z,101386.72
2023-09-03T10:39:39.175Z,101385.47
2023-09-03T10:42:33.072Z,101387.19
2023-09-03T10:45:03.969Z,101381.59
2023-09-03T10:47:33.772Z,101380.59
2023-09-03T10:50:02.502Z,101373.31
2023-09-03T10:52:41.629Z,101371.78
2023-09-03T10:55:15.086Z,101376.56
2023-09-03T10:57:45.037Z,101390.19
2023-09-03T11:00:18.271Z,101383.56
2023-09-03T11:02:50.283Z,101382.22
2023-09-03T11:05:22.273Z,101383.44
2023-09-03T11:07:54.748Z,101387.44
2023-09-03T11:10:42.660Z,101386.78
2023-09-03T11:13:30.913Z,101386.63
2023-09-03T11:16:05.016Z,101389.00
2023-09-03T11:18:34.743Z,101385.97
2023-09-03T11:21:03.789Z,101390.09
2023-09-03T11:23:36.204Z,101388.78
2023-09-03T11:26:06.943Z,101390.44
2023-09-03T11:28:39.525Z,101385.22
2023-09-03T11:31:08.151Z,101389.75
2023-09-03T11:33:37.716Z,101377.50
2023-09-03T11:36:06.575Z,101393.19
2023-09-03T11:38:36.048Z,101383.56
2023-09-03T11:41:05.522Z,101380.09
2023-09-03T11:43:38.145Z,101371.00
2023-09-03T11:46:14.579Z,101367.50
2023-09-03T11:48:50.814Z,101358.44
2023-09-03T11:51:28.681Z,101385.94
2023-09-03T11:53:57.772Z,101371.31
2023-09-03T11:56:28.843Z,101376.88
2023-09-03T11:59:01.639Z,101365.56
2023-09-03T12:01:29.848Z,101357.25
2023-09-03T12:04:00.186Z,101353.66
2023-09-03T12:06:29.633Z,101364.69
2023-09-03T12:08:58.342Z,101366.09
2023-09-03T12:11:31.378Z,101363.13
2023-09-03T12:14:00.057Z,101370.91
2023-09-03T12:16:29.955Z,101365.69
2023-09-03T12:19:01.275Z,101357.19
2023-09-03T12:21:34.230Z,101360.53
2023-09-03T12:24:03.592Z,101370.47
2023-09-03T12:26:31.827Z,101369.66
2023-09-03T12:29:02.275Z,101371.25
2023-09-03T12:31:40.900Z,101363.94
2023-09-03T12:34:11.137Z,101360.22
2023-09-03T12:36:58.095Z,101356.03
2023-09-03T12:39:31.523Z,101362.34
2023-09-03T12:42:00.220Z,101359.13
2023-09-03T12:44:28.963Z,101352.97
2023-09-03T12:46:58.200Z,101361.19
2023-09-03T12:49:28.518Z,101363.22
2023-09-03T12:51:57.918Z,101355.75
2023-09-03T12:54:27.502Z,101352.84
2023-09-03T12:56:56.110Z,101360.44
2023-09-03T12:59:24.571Z,101359.34
2023-09-03T13:01:52.708Z,101359.47
2023-09-03T13:04:21.498Z,101355.00
2023-09-03T13:06:51.083Z,101369.72
2023-09-03T13:09:19.233Z,101363.34
2023-09-03T13:11:48.949Z,101359.72
2023-09-03T13:14:17.051Z,101342.56
2023-09-03T13:16:45.487Z,101351.53
2023-09-03T13:19:13.555Z,101351.50
2023-09-03T13:21:42.005Z,101354.63
2023-09-03T13:24:12.176Z,101358.84
2023-09-03T13:26:40.659Z,101360.66
2023-09-03T13:29:09.460Z,101358.38
2023-09-03T13:31:38.017Z,101361.03
2023-09-03T13:34:07.959Z,101358.66
2023-09-03T13:36:36.094Z,101362.53
2023-09-03T13:39:04.622Z,101364.53
2023-09-03T13:41:34.429Z,101355.13
2023-09-03T13:44:02.668Z,101352.91
2023-09-03T13:46:33.030Z,101360.94
2023-09-03T13:49:01.224Z,101350.31
2023-09-03T13:51:29.593Z,101341.09
2023-09-03T13:53:58.227Z,101349.06
2023-09-03T13:56:26.798Z,101344.44
2023-09-03T14:02:27.046Z,101346.34
2023-09-03T14:04:55.241Z,101344.75
2023-09-03T14:07:23.591Z,101347.56
2023-09-03T14:09:54.655Z,101336.25
2023-09-03T14:12:24.102Z,101336.50
2023-09-03T14:14:52.234Z,101340.81
2023-09-03T14:17:20.897Z,101342.09
2023-09-03T14:19:51.042Z,101347.28
2023-09-03T14:22:19.237Z,101328.06
2023-09-03T14:24:47.818Z,101342.13
2023-09-03T14:27:16.415Z,101342.84
2023-09-03T14:29:44.485Z,101342.91
2023-09-03T14:32:12.583Z,101330.63
2023-09-03T14:34:42.301Z,101344.59
2023-09-03T14:37:11.957Z,101347.97
2023-09-03T14:39:40.063Z,101347.38
2023-09-03T14:42:08.216Z,101342.38
2023-09-03T14:44:36.721Z,101349.44
2023-09-03T14:47:05.816Z,101350.38
2023-09-03T14:49:40.266Z,101337.47
2023-09-03T14:52:12.655Z,101342.47
2023-09-03T14:54:41.052Z,101337.56
2023-09-03T14:57:09.388Z,101342.69
2023-09-03T14:59:38.383Z,101339.97
2023-09-03T15:02:06.659Z,101339.31
2023-09-03T15:04:34.811Z,101334.25
2023-09-03T15:07:03.109Z,101337.66
2023-09-03T15:09:32.645Z,101331.53
2023-09-03T15:12:00.699Z,101337.31
2023-09-03T15:14:30.090Z,101339.25
2023-09-03T15:16:58.362Z,101338.81
2023-09-03T15:19:26.362Z,101343.56
2023-09-03T15:21:54.981Z,101332.63
2023-09-03T15:24:23.148Z,101338.84
2023-09-03T15:26:52.553Z,101342.97
2023-09-03T15:29:20.688Z,101352.28
2023-09-03T15:31:49.055Z,101352.63
2023-09-03T15:34:17.335Z,101353.28
2023-09-03T15:36:45.447Z,101350.69
2023-09-03T15:39:13.588Z,101355.50
2023-09-03T15:41:41.807Z,101353.38
2023-09-03T15:44:11.902Z,101354.69
2023-09-03T15:46:40.120Z,101352.31
2023-09-03T15:49:10.269Z,101344.72
2023-09-03T15:51:40.239Z,101354.28
2023-09-03T15:54:08.578Z,101351.44
2023-09-03T15:56:36.943Z,101353.16
2023-09-03T15:59:05.197Z,101353.72
2023-09-03T16:01:34.866Z,101352.00
2023-09-03T16:04:03.395Z,101345.13
2023-09-03T16:06:32.006Z,101350.34
2023-09-03T16:09:00.692Z,101349.28
2023-09-03T16:11:29.049Z,101351.19
2023-09-03T16:13:57.375Z,101342.81
2023-09-03T16:16:28.685Z,101339.41
2023-09-03T16:18:59.742Z,101347.06
2023-09-03T16:21:27.857Z,101342.00
2023-09-03T16:23:56.097Z,101339.25
2023-09-03T16:26:24.419Z,101342.97
2023-09-03T16:28:52.516Z,101334.03
2023-09-03T16:31:20.718Z,101334.50
2023-09-03T16:33:48.789Z,101341.16
2023-09-03T16:36:19.137Z,101336.63
2023-09-03T16:38:47.234Z,101338.59
2023-09-03T16:41:15.288Z,101344.59
2023-09-03T16:43:44.005Z,101346.69
2023-09-03T16:46:13.906Z,101345.63
2023-09-03T16:48:42.079Z,101348.78
2023-09-03T16:51:10.434Z,101339.97
2023-09-03T16:53:40.450Z,101344.88
2023-09-03T16:56:09.867Z,101345.19
2023-09-03T16:58:37.963Z,101352.84
2023-09-03T17:01:06.494Z,101350.56
2023-09-03T17:03:34.816Z,101342.94
2023-09-03T17:06:03.370Z,101335.44
2023-09-03T17:08:31.801Z,101337.50
2023-09-03T17:11:03.394Z,101338.91
2023-09-03T17:13:32.487Z,101338.91
2023-09-03T17:16:00.729Z,101334.22
2023-09-03T17:18:29.217Z,101333.00
2023-09-03T17:20:57.715Z,101335.09
2023-09-03T17:23:25.993Z,101338.91
2023-09-03T17:25:54.045Z,101337.78
2023-09-03T17:28:23.964Z,101334.81
2023-09-03T17:30:52.438Z,101331.06
2023-09-03T17:33:20.692Z,101336.72
2023-09-03T17:35:49.009Z,101338.00
2023-09-03T17:38:19.002Z,101337.94
2023-09-03T17:40:47.323Z,101338.59
2023-09-03T17:43:15.605Z,101336.28
2023-09-03T17:45:45.511Z,101299.28
2023-09-03T17:48:13.927Z,101326.22
2023-09-03T17:50:42.533Z,101324.78
2023-09-03T17:53:10.742Z,101326.44
2023-09-03T17:55:39.799Z,101328.22
2023-09-03T17:58:08.460Z,101333.47
2023-09-03T18:00:36.712Z,101339.47
2023-09-03T18:03:06.816Z,101344.31
2023-09-03T18:05:35.678Z,101343.94
2023-09-03T18:08:04.939Z,101347.31
2023-09-03T18:10:34.969Z,101342.44
2023-09-03T18:13:07.205Z,101352.53
2023-09-03T18:15:35.628Z,101340.75
2023-09-03T18:18:04.112Z,101354.41
2023-09-03T18:20:33.806Z,101351.75
2023-09-03T18:23:01.935Z,101351.00
2023-09-03T18:25:30.376Z,101348.34
2023-09-03T18:27:58.519Z,101352.13
2023-09-03T18:30:26.667Z,101354.19
2023-09-03T18:32:55.389Z,101351.19
2023-09-03T18:35:23.664Z,101361.06
2023-09-03T18:37:53.199Z,101366.75
2023-09-03T18:40:21.405Z,101362.56
2023-09-03T18:42:49.591Z,101365.19
2023-09-03T18:45:18.265Z,101366.03
2023-09-03T18:47:46.790Z,101373.50
2023-09-03T18:50:15.178Z,101377.72
2023-09-03T18:52:43.195Z,101380.34
2023-09-03T18:55:12.877Z,101376.16
2023-09-03T18:57:41.447Z,101372.66
2023-09-03T19:03:24.802Z,101381.94
2023-09-03T19:05:53.644Z,101382.28
2023-09-03T19:08:21.906Z,101381.41
2023-09-03T19:10:56.383Z,101379.59
2023-09-03T19:13:24.799Z,101382.41
2023-09-03T19:15:55.228Z,101377.03
2023-09-03T19:18:25.706Z,101376.97
2023-09-03T19:20:55.576Z,101376.00
2023-09-03T19:23:23.971Z,101385.09
2023-09-03T19:25:54.000Z,101375.59
2023-09-03T19:28:22.923Z,101369.56
2023-09-03T19:30:53.089Z,101362.88
2023-09-03T19:33:22.109Z,101367.69
2023-09-03T19:35:58.011Z,101366.63
2023-09-03T19:38:27.229Z,101357.25
2023-09-03T19:40:55.785Z,101356.38
2023-09-03T19:43:24.963Z,101361.56
2023-09-03T19:45:54.546Z,101356.03
2023-09-03T19:48:24.706Z,101361.72
2023-09-03T19:50:55.343Z,101357.81
2023-09-03T19:53:23.668Z,101361.72
2023-09-03T19:55:51.800Z,101356.38
2023-09-03T19:58:21.106Z,101355.09
2023-09-03T20:00:50.816Z,101356.69
2023-09-03T20:03:18.976Z,101348.28
2023-09-03T20:05:58.939Z,101351.00
2023-09-03T20:08:27.617Z,101354.03
2023-09-03T20:10:57.441Z,101349.81
2023-09-03T20:13:25.785Z,101332.78
2023-09-03T20:15:58.640Z,101352.53
2023-09-03T20:18:27.419Z,101350.38
2023-09-03T20:20:55.609Z,101354.75
2023-09-03T20:23:25.932Z,101353.78
2023-09-03T20:26:01.042Z,101350.47
2023-09-03T20:28:43.230Z,101352.34
2023-09-03T20:31:12.621Z,101342.91
2023-09-03T20:33:41.415Z,101354.13
2023-09-03T20:36:09.726Z,101346.97
2023-09-03T20:38:39.398Z,101343.47
2023-09-03T20:41:07.910Z,101340.53
2023-09-03T20:43:36.416Z,101333.53
2023-09-03T20:46:04.836Z,101341.94
2023-09-03T20:48:33.738Z,101340.38
2023-09-03T20:51:03.294Z,101335.03
2023-09-03T20:53:31.893Z,101340.84
2023-09-03T20:56:01.646Z,101335.84
2023-09-03T20:58:29.860Z,101330.66
2023-09-03T21:00:58.196Z,101308.47
2023-09-03T21:03:27.123Z,101338.53
2023-09-03T21:05:56.439Z,101346.19
2023-09-03T21:08:26.693Z,101345.50
2023-09-03T21:10:58.850Z,101345.16
2023-09-03T21:13:30.377Z,101345.16
2023-09-03T21:15:59.992Z,101344.84
2023-09-03T21:18:29.569Z,101344.78
2023-09-03T21:21:03.557Z,101342.41
2023-09-03T21:23:33.115Z,101331.34
2023-09-03T21:26:03.082Z,101331.78
2023-09-03T21:28:33.268Z,101342.56
2023-09-03T21:31:01.517Z,101339.41
2023-09-03T21:33:29.671Z,101355.31
2023-09-03T21:35:58.605Z,101353.66
2023-09-03T21:38:26.904Z,101356.78
2023-09-03T21:40:55.217Z,101365.97
2023-09-03T21:43:23.379Z,101371.50
2023-09-03T21:45:52.895Z,101369.97
2023-09-03T21:48:23.131Z,101361.91
2023-09-03T21:50:59.797Z,101360.47
2023-09-03T21:53:38.026Z,101364.53
2023-09-03T21:56:06.953Z,101367.16
2023-09-03T21:58:35.265Z,101362.56
2023-09-03T22:01:04.839Z,101370.25
2023-09-03T22:03:33.093Z,101370.72
2023-09-03T22:06:03.181Z,101367.38
2023-09-03T22:08:31.299Z,101370.59
2023-09-03T22:10:59.473Z,101369.53
2023-09-03T22:13:30.326Z,101367.09
2023-09-03T22:15:59.053Z,101373.03
2023-09-03T22:18:31.214Z,101371.06
2023-09-03T22:21:02.734Z,101372.81
2023-09-03T22:23:30.851Z,101378.38
2023-09-03T22:26:01.711Z,101380.19
2023-09-03T22:28:29.803Z,101369.44
2023-09-03T22:30:58.002Z,101368.84
2023-09-03T22:33:26.603Z,101375.59
2023-09-03T22:35:56.465Z,101380.09
2023-09-03T22:38:24.850Z,101377.59
2023-09-03T22:40:53.313Z,101380.47
2023-09-03T22:43:21.760Z,101377.97
2023-09-03T22:45:49.968Z,101376.41
2023-09-03T22:48:18.081Z,101378.19
2023-09-03T22:50:47.169Z,101382.84
2023-09-03T22:53:17.655Z,101380.13
2023-09-03T22:55:46.032Z,101373.94
2023-09-03T22:58:14.364Z,101378.00
2023-09-03T23:00:42.915Z,101373.63
2023-09-03T23:03:11.310Z,101372.06
2023-09-03T23:05:39.586Z,101376.44
2023-09-03T23:08:08.794Z,101383.00
2023-09-03T23:10:40.529Z,101382.97
2023-09-03T23:13:08.592Z,101384.78
2023-09-03T23:15:36.823Z,101382.09
2023-09-03T23:18:06.468Z,101384.38
2023-09-03T23:20:34.667Z,101379.75
2023-09-03T23:23:03.023Z,101389.22
2023-09-03T23:25:31.137Z,101387.75
2023-09-03T23:28:00.524Z,101384.50
2023-09-03T23:30:28.628Z,101385.56
2023-09-03T23:32:56.780Z,101377.38
2023-09-03T23:35:24.939Z,101382.25
2023-09-03T23:37:53.066Z,101376.97
2023-09-03T23:40:21.229Z,101369.09
2023-09-03T23:42:49.305Z,101372.28
2023-09-03T23:45:20.033Z,101362.94
2023-09-03T23:47:48.245Z,101368.44
2023-09-03T23:50:16.501Z,101363.94
2023-09-03T23:52:44.601Z,101364.97
2023-09-03T23:55:12.792Z,101363.72
2023-09-03T23:57:40.906Z,101364.88
